sensor_id;sensor_type;location;lat;lon;timestamp;temperature;humidity
69393;SHT31;56582;44.624;20.378;2023-06-10T00:01:56;22.16;83.22
69393;SHT31;56582;44.624;20.378;2023-06-10T00:04:25;22.15;82.96
69393;SHT31;56582;44.624;20.378;2023-06-10T00:06:51;22.15;82.95
69393;SHT31;56582;44.624;20.378;2023-06-10T00:09:16;22.13;83.03
69393;SHT31;56582;44.624;20.378;2023-06-10T00:11:43;22.12;82.86
69393;SHT31;56582;44.624;20.378;2023-06-10T00:14:09;22.10;82.83
69393;SHT31;56582;44.624;20.378;2023-06-10T00:16:35;22.12;82.75
69393;SHT31;56582;44.624;20.378;2023-06-10T00:19:02;22.08;82.68
69393;SHT31;56582;44.624;20.378;2023-06-10T00:21:28;22.06;82.53
69393;SHT31;56582;44.624;20.378;2023-06-10T00:23:54;22.02;82.72
69393;SHT31;56582;44.624;20.378;2023-06-10T00:26:23;21.99;82.74
69393;SHT31;56582;44.624;20.378;2023-06-10T00:28:49;21.95;82.77
69393;SHT31;56582;44.624;20.378;2023-06-10T00:31:15;21.97;82.95
69393;SHT31;56582;44.624;20.378;2023-06-10T00:33:41;21.95;82.69
69393;SHT31;56582;44.624;20.378;2023-06-10T00:36:06;21.92;82.78
69393;SHT31;56582;44.624;20.378;2023-06-10T00:38:32;21.91;82.90
69393;SHT31;56582;44.624;20.378;2023-06-10T00:40:58;21.91;82.80
69393;SHT31;56582;44.624;20.378;2023-06-10T00:43:24;21.89;82.91
69393;SHT31;56582;44.624;20.378;2023-06-10T00:45:50;21.92;82.93
69393;SHT31;56582;44.624;20.378;2023-06-10T00:48:16;21.92;82.78
69393;SHT31;56582;44.624;20.378;2023-06-10T00:50:41;21.97;82.61
69393;SHT31;56582;44.624;20.378;2023-06-10T00:53:07;21.99;82.60
69393;SHT31;56582;44.624;20.378;2023-06-10T00:55:33;22.01;82.77
69393;SHT31;56582;44.624;20.378;2023-06-10T00:57:59;22.01;82.65
69393;SHT31;56582;44.624;20.378;2023-06-10T01:00:25;21.98;82.66
69393;SHT31;56582;44.624;20.378;2023-06-10T01:02:51;21.99;82.83
69393;SHT31;56582;44.624;20.378;2023-06-10T01:05:19;22.01;82.80
69393;SHT31;56582;44.624;20.378;2023-06-10T01:10:38;22.01;82.58
69393;SHT31;56582;44.624;20.378;2023-06-10T01:13:07;21.99;82.51
69393;SHT31;56582;44.624;20.378;2023-06-10T01:15:37;21.99;82.33
69393;SHT31;56582;44.624;20.378;2023-06-10T01:18:04;21.97;82.40
69393;SHT31;56582;44.624;20.378;2023-06-10T01:20:34;21.95;82.47
69393;SHT31;56582;44.624;20.378;2023-06-10T01:23:01;21.94;82.52
69393;SHT31;56582;44.624;20.378;2023-06-10T01:25:32;21.94;82.43
69393;SHT31;56582;44.624;20.378;2023-06-10T01:34:00;21.88;82.58
69393;SHT31;56582;44.624;20.378;2023-06-10T01:36:26;21.84;82.61
69393;SHT31;56582;44.624;20.378;2023-06-10T01:38:53;21.85;82.39
69393;SHT31;56582;44.624;20.378;2023-06-10T01:41:19;21.71;82.46
69393;SHT31;56582;44.624;20.378;2023-06-10T01:43:48;21.67;83.09
69393;SHT31;56582;44.624;20.378;2023-06-10T01:46:16;21.65;83.22
69393;SHT31;56582;44.624;20.378;2023-06-10T01:48:45;21.68;83.04
69393;SHT31;56582;44.624;20.378;2023-06-10T01:51:10;21.71;82.88
69393;SHT31;56582;44.624;20.378;2023-06-10T01:53:36;21.69;82.43
69393;SHT31;56582;44.624;20.378;2023-06-10T01:56:01;21.68;83.02
69393;SHT31;56582;44.624;20.378;2023-06-10T01:58:27;21.68;82.93
69393;SHT31;56582;44.624;20.378;2023-06-10T02:00:52;21.69;82.98
69393;SHT31;56582;44.624;20.378;2023-06-10T02:03:17;21.68;82.96
69393;SHT31;56582;44.624;20.378;2023-06-10T02:05:43;21.73;82.91
69393;SHT31;56582;44.624;20.378;2023-06-10T02:08:09;21.73;82.95
69393;SHT31;56582;44.624;20.378;2023-06-10T02:10:34;21.71;82.94
69393;SHT31;56582;44.624;20.378;2023-06-10T02:13:00;21.75;82.92
69393;SHT31;56582;44.624;20.378;2023-06-10T02:15:34;21.71;82.87
69393;SHT31;56582;44.624;20.378;2023-06-10T02:18:00;21.69;83.25
69393;SHT31;56582;44.624;20.378;2023-06-10T02:20:25;21.64;83.17
69393;SHT31;56582;44.624;20.378;2023-06-10T02:22:51;21.61;83.11
69393;SHT31;56582;44.624;20.378;2023-06-10T02:25:16;21.58;83.16
69393;SHT31;56582;44.624;20.378;2023-06-10T02:27:42;21.60;83.04
69393;SHT31;56582;44.624;20.378;2023-06-10T02:30:08;21.58;83.02
69393;SHT31;56582;44.624;20.378;2023-06-10T02:32:35;21.54;82.88
69393;SHT31;56582;44.624;20.378;2023-06-10T02:35:01;21.44;82.69
69393;SHT31;56582;44.624;20.378;2023-06-10T02:37:26;21.41;83.06
69393;SHT31;56582;44.624;20.378;2023-06-10T02:39:52;21.37;83.05
69393;SHT31;56582;44.624;20.378;2023-06-10T02:42:17;21.33;82.96
69393;SHT31;56582;44.624;20.378;2023-06-10T02:44:42;21.31;83.19
69393;SHT31;56582;44.624;20.378;2023-06-10T02:47:08;21.34;83.08
69393;SHT31;56582;44.624;20.378;2023-06-10T02:49:33;21.29;83.06
69393;SHT31;56582;44.624;20.378;2023-06-10T02:51:59;21.31;83.06
69393;SHT31;56582;44.624;20.378;2023-06-10T02:54:25;21.29;83.09
69393;SHT31;56582;44.624;20.378;2023-06-10T02:56:51;21.30;83.19
69393;SHT31;56582;44.624;20.378;2023-06-10T02:59:17;21.29;83.31
69393;SHT31;56582;44.624;20.378;2023-06-10T03:01:42;21.36;83.18
69393;SHT31;56582;44.624;20.378;2023-06-10T03:04:08;21.40;83.07
69393;SHT31;56582;44.624;20.378;2023-06-10T03:06:34;21.39;83.11
69393;SHT31;56582;44.624;20.378;2023-06-10T03:09:01;21.41;83.15
69393;SHT31;56582;44.624;20.378;2023-06-10T03:11:26;21.46;83.71
69393;SHT31;56582;44.624;20.378;2023-06-10T03:13:52;21.44;83.97
69393;SHT31;56582;44.624;20.378;2023-06-10T03:16:19;21.46;84.53
69393;SHT31;56582;44.624;20.378;2023-06-10T03:18:45;21.47;84.71
69393;SHT31;56582;44.624;20.378;2023-06-10T03:21:10;21.43;85.16
69393;SHT31;56582;44.624;20.378;2023-06-10T03:23:36;21.47;85.07
69393;SHT31;56582;44.624;20.378;2023-06-10T03:26:02;21.43;85.54
69393;SHT31;56582;44.624;20.378;2023-06-10T03:28:27;21.44;85.90
69393;SHT31;56582;44.624;20.378;2023-06-10T03:30:53;21.53;85.96
69393;SHT31;56582;44.624;20.378;2023-06-10T03:33:18;21.53;84.75
69393;SHT31;56582;44.624;20.378;2023-06-10T03:35:44;21.55;84.56
69393;SHT31;56582;44.624;20.378;2023-06-10T03:38:09;21.64;84.61
69393;SHT31;56582;44.624;20.378;2023-06-10T03:40:35;21.65;84.57
69393;SHT31;56582;44.624;20.378;2023-06-10T03:43:00;21.68;83.96
69393;SHT31;56582;44.624;20.378;2023-06-10T03:45:26;21.67;82.98
69393;SHT31;56582;44.624;20.378;2023-06-10T03:47:53;21.65;83.54
69393;SHT31;56582;44.624;20.378;2023-06-10T03:50:19;21.51;82.92
69393;SHT31;56582;44.624;20.378;2023-06-10T03:52:44;21.30;84.42
69393;SHT31;56582;44.624;20.378;2023-06-10T03:55:11;21.36;84.30
69393;SHT31;56582;44.624;20.378;2023-06-10T03:57:38;21.20;83.03
69393;SHT31;56582;44.624;20.378;2023-06-10T04:00:04;21.06;82.89
69393;SHT31;56582;44.624;20.378;2023-06-10T04:02:37;20.95;84.79
69393;SHT31;56582;44.624;20.378;2023-06-10T04:05:03;21.10;85.43
69393;SHT31;56582;44.624;20.378;2023-06-10T04:07:28;21.30;85.09
69393;SHT31;56582;44.624;20.378;2023-06-10T04:09:56;21.31;83.07
69393;SHT31;56582;44.624;20.378;2023-06-10T04:12:21;21.20;83.48
69393;SHT31;56582;44.624;20.378;2023-06-10T04:14:47;20.52;85.06
69393;SHT31;56582;44.624;20.378;2023-06-10T04:17:12;19.58;88.08
69393;SHT31;56582;44.624;20.378;2023-06-10T04:19:37;19.24;89.43
69393;SHT31;56582;44.624;20.378;2023-06-10T04:22:03;19.26;89.63
69393;SHT31;56582;44.624;20.378;2023-06-10T04:24:29;19.14;90.17
69393;SHT31;56582;44.624;20.378;2023-06-10T04:26:54;18.84;91.41
69393;SHT31;56582;44.624;20.378;2023-06-10T04:29:20;18.66;92.19
69393;SHT31;56582;44.624;20.378;2023-06-10T04:31:45;18.87;91.97
69393;SHT31;56582;44.624;20.378;2023-06-10T04:34:12;18.97;91.56
69393;SHT31;56582;44.624;20.378;2023-06-10T04:36:37;18.67;92.20
69393;SHT31;56582;44.624;20.378;2023-06-10T04:39:03;18.45;92.95
69393;SHT31;56582;44.624;20.378;2023-06-10T04:41:29;18.52;93.05
69393;SHT31;56582;44.624;20.378;2023-06-10T04:43:54;18.76;91.86
69393;SHT31;56582;44.624;20.378;2023-06-10T04:46:20;18.98;91.72
69393;SHT31;56582;44.624;20.378;2023-06-10T04:48:45;18.74;92.46
69393;SHT31;56582;44.624;20.378;2023-06-10T04:51:12;18.93;92.34
69393;SHT31;56582;44.624;20.378;2023-06-10T04:53:38;19.08;92.10
69393;SHT31;56582;44.624;20.378;2023-06-10T04:56:04;19.25;91.51
69393;SHT31;56582;44.624;20.378;2023-06-10T04:58:29;19.22;90.84
69393;SHT31;56582;44.624;20.378;2023-06-10T05:00:55;19.34;91.37
69393;SHT31;56582;44.624;20.378;2023-06-10T05:03:20;19.59;91.08
69393;SHT31;56582;44.624;20.378;2023-06-10T05:05:46;19.63;90.47
69393;SHT31;56582;44.624;20.378;2023-06-10T05:08:11;19.74;90.41
69393;SHT31;56582;44.624;20.378;2023-06-10T05:10:37;19.70;88.88
69393;SHT31;56582;44.624;20.378;2023-06-10T05:13:03;19.86;89.70
69393;SHT31;56582;44.624;20.378;2023-06-10T05:15:28;19.87;87.10
69393;SHT31;56582;44.624;20.378;2023-06-10T05:17:56;19.76;86.38
69393;SHT31;56582;44.624;20.378;2023-06-10T05:20:23;19.92;86.00
69393;SHT31;56582;44.624;20.378;2023-06-10T05:22:50;19.93;85.34
69393;SHT31;56582;44.624;20.378;2023-06-10T05:25:16;20.06;85.46
69393;SHT31;56582;44.624;20.378;2023-06-10T05:27:41;20.06;85.43
69393;SHT31;56582;44.624;20.378;2023-06-10T05:30:09;20.17;85.08
69393;SHT31;56582;44.624;20.378;2023-06-10T05:32:35;20.34;84.56
69393;SHT31;56582;44.624;20.378;2023-06-10T05:35:00;20.41;85.17
69393;SHT31;56582;44.624;20.378;2023-06-10T05:37:26;20.47;85.58
69393;SHT31;56582;44.624;20.378;2023-06-10T05:39:52;20.53;85.01
69393;SHT31;56582;44.624;20.378;2023-06-10T05:42:17;20.61;85.76
69393;SHT31;56582;44.624;20.378;2023-06-10T05:44:43;20.62;85.38
69393;SHT31;56582;44.624;20.378;2023-06-10T05:47:08;20.82;86.59
69393;SHT31;56582;44.624;20.378;2023-06-10T05:49:34;20.65;85.23
69393;SHT31;56582;44.624;20.378;2023-06-10T05:51:59;20.73;85.67
69393;SHT31;56582;44.624;20.378;2023-06-10T05:54:25;20.86;85.36
69393;SHT31;56582;44.624;20.378;2023-06-10T05:56:51;20.99;84.95
69393;SHT31;56582;44.624;20.378;2023-06-10T05:59:17;20.99;84.07
69393;SHT31;56582;44.624;20.378;2023-06-10T06:01:42;21.09;83.62
69393;SHT31;56582;44.624;20.378;2023-06-10T06:04:08;21.24;83.98
69393;SHT31;56582;44.624;20.378;2023-06-10T06:06:35;21.68;84.87
69393;SHT31;56582;44.624;20.378;2023-06-10T06:09:00;21.79;81.81
69393;SHT31;56582;44.624;20.378;2023-06-10T06:11:25;22.05;82.94
69393;SHT31;56582;44.624;20.378;2023-06-10T06:13:51;22.22;81.65
69393;SHT31;56582;44.624;20.378;2023-06-10T06:16:16;22.33;81.29
69393;SHT31;56582;44.624;20.378;2023-06-10T06:18:43;22.63;80.65
69393;SHT31;56582;44.624;20.378;2023-06-10T06:21:09;22.95;78.37
69393;SHT31;56582;44.624;20.378;2023-06-10T06:23:34;23.29;77.72
69393;SHT31;56582;44.624;20.378;2023-06-10T06:26:00;23.22;72.68
69393;SHT31;56582;44.624;20.378;2023-06-10T06:28:25;23.45;76.14
69393;SHT31;56582;44.624;20.378;2023-06-10T06:30:55;23.19;73.29
69393;SHT31;56582;44.624;20.378;2023-06-10T06:33:20;23.49;74.38
69393;SHT31;56582;44.624;20.378;2023-06-10T06:35:46;23.62;75.19
69393;SHT31;56582;44.624;20.378;2023-06-10T06:38:11;23.28;74.27
69393;SHT31;56582;44.624;20.378;2023-06-10T06:40:37;23.11;73.57
69393;SHT31;56582;44.624;20.378;2023-06-10T06:43:02;23.26;75.13
69393;SHT31;56582;44.624;20.378;2023-06-10T06:45:28;22.91;74.19
69393;SHT31;56582;44.624;20.378;2023-06-10T06:47:53;22.70;76.95
69393;SHT31;56582;44.624;20.378;2023-06-10T06:50:19;22.59;77.31
69393;SHT31;56582;44.624;20.378;2023-06-10T06:52:44;22.56;77.20
69393;SHT31;56582;44.624;20.378;2023-06-10T06:55:10;22.76;77.70
69393;SHT31;56582;44.624;20.378;2023-06-10T06:57:35;22.66;77.33
69393;SHT31;56582;44.624;20.378;2023-06-10T07:00:11;22.52;78.24
69393;SHT31;56582;44.624;20.378;2023-06-10T07:02:37;22.50;78.38
69393;SHT31;56582;44.624;20.378;2023-06-10T07:05:03;22.30;78.04
69393;SHT31;56582;44.624;20.378;2023-06-10T07:07:28;22.45;77.00
69393;SHT31;56582;44.624;20.378;2023-06-10T07:10:03;22.56;78.29
69393;SHT31;56582;44.624;20.378;2023-06-10T07:12:29;22.57;78.47
69393;SHT31;56582;44.624;20.378;2023-06-10T07:14:58;22.54;78.44
69393;SHT31;56582;44.624;20.378;2023-06-10T07:17:24;22.33;78.10
69393;SHT31;56582;44.624;20.378;2023-06-10T07:19:50;22.52;78.67
69393;SHT31;56582;44.624;20.378;2023-06-10T07:22:17;22.61;78.09
69393;SHT31;56582;44.624;20.378;2023-06-10T07:24:46;22.66;78.86
69393;SHT31;56582;44.624;20.378;2023-06-10T07:27:12;22.61;78.32
69393;SHT31;56582;44.624;20.378;2023-06-10T07:29:38;22.59;78.66
69393;SHT31;56582;44.624;20.378;2023-06-10T07:32:04;22.43;79.02
69393;SHT31;56582;44.624;20.378;2023-06-10T07:34:30;22.23;79.65
69393;SHT31;56582;44.624;20.378;2023-06-10T07:36:55;22.30;80.21
69393;SHT31;56582;44.624;20.378;2023-06-10T07:39:21;22.25;80.02
69393;SHT31;56582;44.624;20.378;2023-06-10T07:41:47;22.39;79.30
69393;SHT31;56582;44.624;20.378;2023-06-10T07:44:14;22.49;78.93
69393;SHT31;56582;44.624;20.378;2023-06-10T07:46:40;22.49;78.70
69393;SHT31;56582;44.624;20.378;2023-06-10T07:49:05;22.29;78.28
69393;SHT31;56582;44.624;20.378;2023-06-10T07:51:31;22.05;78.97
69393;SHT31;56582;44.624;20.378;2023-06-10T07:53:57;22.30;78.77
69393;SHT31;56582;44.624;20.378;2023-06-10T07:56:22;22.64;77.45
69393;SHT31;56582;44.624;20.378;2023-06-10T07:58:51;22.54;77.74
69393;SHT31;56582;44.624;20.378;2023-06-10T08:01:17;22.71;77.44
69393;SHT31;56582;44.624;20.378;2023-06-10T08:03:42;22.43;77.50
69393;SHT31;56582;44.624;20.378;2023-06-10T08:06:08;22.54;78.50
69393;SHT31;56582;44.624;20.378;2023-06-10T08:08:36;22.78;77.42
69393;SHT31;56582;44.624;20.378;2023-06-10T08:11:07;22.80;77.14
69393;SHT31;56582;44.624;20.378;2023-06-10T08:13:32;23.33;77.22
69393;SHT31;56582;44.624;20.378;2023-06-10T08:15:58;23.65;76.14
69393;SHT31;56582;44.624;20.378;2023-06-10T08:18:30;23.63;74.35
69393;SHT31;56582;44.624;20.378;2023-06-10T08:20:55;24.01;73.59
69393;SHT31;56582;44.624;20.378;2023-06-10T08:23:21;23.72;72.60
69393;SHT31;56582;44.624;20.378;2023-06-10T08:25:46;23.65;73.94
69393;SHT31;56582;44.624;20.378;2023-06-10T08:28:12;23.73;74.46
69393;SHT31;56582;44.624;20.378;2023-06-10T08:30:37;23.84;72.45
69393;SHT31;56582;44.624;20.378;2023-06-10T08:33:03;24.13;73.70
69393;SHT31;56582;44.624;20.378;2023-06-10T08:35:28;24.11;73.78
69393;SHT31;56582;44.624;20.378;2023-06-10T08:37:54;24.44;72.74
69393;SHT31;56582;44.624;20.378;2023-06-10T08:40:19;24.21;71.02
69393;SHT31;56582;44.624;20.378;2023-06-10T08:43:04;24.04;69.82
69393;SHT31;56582;44.624;20.378;2023-06-10T08:45:31;23.96;70.62
69393;SHT31;56582;44.624;20.378;2023-06-10T08:47:57;23.87;71.63
69393;SHT31;56582;44.624;20.378;2023-06-10T08:50:25;23.94;72.27
69393;SHT31;56582;44.624;20.378;2023-06-10T08:52:57;24.16;72.29
69393;SHT31;56582;44.624;20.378;2023-06-10T08:55:29;24.10;71.44
69393;SHT31;56582;44.624;20.378;2023-06-10T08:57:55;24.44;71.86
69393;SHT31;56582;44.624;20.378;2023-06-10T09:00:21;24.52;72.71
69393;SHT31;56582;44.624;20.378;2023-06-10T09:02:47;24.68;71.93
69393;SHT31;56582;44.624;20.378;2023-06-10T09:05:15;24.92;69.67
69393;SHT31;56582;44.624;20.378;2023-06-10T09:07:41;24.92;68.76
69393;SHT31;56582;44.624;20.378;2023-06-10T09:10:07;24.83;67.60
69393;SHT31;56582;44.624;20.378;2023-06-10T09:12:34;24.95;70.37
69393;SHT31;56582;44.624;20.378;2023-06-10T09:15:04;24.61;68.29
69393;SHT31;56582;44.624;20.378;2023-06-10T09:17:30;24.83;69.94
69393;SHT31;56582;44.624;20.378;2023-06-10T09:19:55;25.05;69.81
69393;SHT31;56582;44.624;20.378;2023-06-10T09:22:23;25.27;66.44
69393;SHT31;56582;44.624;20.378;2023-06-10T09:24:49;24.79;70.16
69393;SHT31;56582;44.624;20.378;2023-06-10T09:27:14;24.86;70.55
69393;SHT31;56582;44.624;20.378;2023-06-10T09:29:53;24.18;69.72
69393;SHT31;56582;44.624;20.378;2023-06-10T09:32:19;24.31;70.27
69393;SHT31;56582;44.624;20.378;2023-06-10T09:37:51;25.13;70.08
69393;SHT31;56582;44.624;20.378;2023-06-10T09:40:17;25.23;70.08
69393;SHT31;56582;44.624;20.378;2023-06-10T09:42:42;25.24;69.41
69393;SHT31;56582;44.624;20.378;2023-06-10T09:45:08;25.30;67.50
69393;SHT31;56582;44.624;20.378;2023-06-10T09:47:36;25.46;69.48
69393;SHT31;56582;44.624;20.378;2023-06-10T09:50:02;25.56;68.90
69393;SHT31;56582;44.624;20.378;2023-06-10T09:52:28;25.17;69.58
69393;SHT31;56582;44.624;20.378;2023-06-10T09:55:01;25.20;68.40
69393;SHT31;56582;44.624;20.378;2023-06-10T09:57:31;25.34;69.67
69393;SHT31;56582;44.624;20.378;2023-06-10T09:59:57;25.16;67.13
69393;SHT31;56582;44.624;20.378;2023-06-10T10:02:23;25.15;67.71
69393;SHT31;56582;44.624;20.378;2023-06-10T10:04:48;25.17;67.39
69393;SHT31;56582;44.624;20.378;2023-06-10T10:07:14;25.12;68.84
69393;SHT31;56582;44.624;20.378;2023-06-10T10:09:40;25.53;67.42
69393;SHT31;56582;44.624;20.378;2023-06-10T10:12:10;25.91;68.27
69393;SHT31;56582;44.624;20.378;2023-06-10T10:14:44;26.09;67.28
69393;SHT31;56582;44.624;20.378;2023-06-10T10:17:11;25.86;65.69
69393;SHT31;56582;44.624;20.378;2023-06-10T10:19:48;25.78;65.80
69393;SHT31;56582;44.624;20.378;2023-06-10T10:22:20;25.61;63.80
69393;SHT31;56582;44.624;20.378;2023-06-10T10:24:55;25.63;66.03
69393;SHT31;56582;44.624;20.378;2023-06-10T10:27:33;25.99;66.91
69393;SHT31;56582;44.624;20.378;2023-06-10T10:30:02;25.77;64.13
69393;SHT31;56582;44.624;20.378;2023-06-10T10:32:43;25.37;65.42
69393;SHT31;56582;44.624;20.378;2023-06-10T10:35:19;25.43;66.34
69393;SHT31;56582;44.624;20.378;2023-06-10T10:37:47;25.54;67.38
69393;SHT31;56582;44.624;20.378;2023-06-10T10:40:13;25.24;68.32
69393;SHT31;56582;44.624;20.378;2023-06-10T10:42:40;25.12;67.58
69393;SHT31;56582;44.624;20.378;2023-06-10T10:45:07;25.20;68.46
69393;SHT31;56582;44.624;20.378;2023-06-10T10:47:33;25.43;67.73
69393;SHT31;56582;44.624;20.378;2023-06-10T10:50:00;25.74;66.91
69393;SHT31;56582;44.624;20.378;2023-06-10T10:52:28;25.71;66.37
69393;SHT31;56582;44.624;20.378;2023-06-10T10:55:12;25.94;69.75
69393;SHT31;56582;44.624;20.378;2023-06-10T10:57:38;26.26;66.31
69393;SHT31;56582;44.624;20.378;2023-06-10T11:00:05;26.33;65.43
69393;SHT31;56582;44.624;20.378;2023-06-10T11:02:41;26.11;63.05
69393;SHT31;56582;44.624;20.378;2023-06-10T11:05:18;26.57;66.61
69393;SHT31;56582;44.624;20.378;2023-06-10T11:07:53;26.64;62.43
69393;SHT31;56582;44.624;20.378;2023-06-10T11:24:53;25.77;64.54
69393;SHT31;56582;44.624;20.378;2023-06-10T11:27:20;26.22;65.00
69393;SHT31;56582;44.624;20.378;2023-06-10T11:32:30;25.85;63.11
69393;SHT31;56582;44.624;20.378;2023-06-10T11:34:57;25.77;64.84
69393;SHT31;56582;44.624;20.378;2023-06-10T11:37:23;26.11;65.97
69393;SHT31;56582;44.624;20.378;2023-06-10T11:39:53;26.49;64.12
69393;SHT31;56582;44.624;20.378;2023-06-10T11:42:19;26.42;62.01
69393;SHT31;56582;44.624;20.378;2023-06-10T11:44:52;26.36;61.57
69393;SHT31;56582;44.624;20.378;2023-06-10T11:47:19;26.40;62.23
69393;SHT31;56582;44.624;20.378;2023-06-10T11:49:46;26.64;64.24
69393;SHT31;56582;44.624;20.378;2023-06-10T11:52:28;27.07;60.71
69393;SHT31;56582;44.624;20.378;2023-06-10T11:54:55;27.20;61.01
69393;SHT31;56582;44.624;20.378;2023-06-10T11:57:20;27.46;61.66
69393;SHT31;56582;44.624;20.378;2023-06-10T11:59:46;27.39;61.93
69393;SHT31;56582;44.624;20.378;2023-06-10T12:02:18;27.50;63.04
69393;SHT31;56582;44.624;20.378;2023-06-10T12:04:45;27.76;62.16
69393;SHT31;56582;44.624;20.378;2023-06-10T12:07:18;27.55;61.74
69393;SHT31;56582;44.624;20.378;2023-06-10T12:09:45;26.79;62.29
69393;SHT31;56582;44.624;20.378;2023-06-10T12:12:10;26.80;64.42
69393;SHT31;56582;44.624;20.378;2023-06-10T12:14:57;27.07;62.70
69393;SHT31;56582;44.624;20.378;2023-06-10T12:20:04;27.22;60.89
69393;SHT31;56582;44.624;20.378;2023-06-10T12:22:43;27.46;62.24
69393;SHT31;56582;44.624;20.378;2023-06-10T12:25:11;27.32;63.39
69393;SHT31;56582;44.624;20.378;2023-06-10T12:27:38;27.34;61.96
69393;SHT31;56582;44.624;20.378;2023-06-10T12:30:05;27.48;59.31
69393;SHT31;56582;44.624;20.378;2023-06-10T12:32:42;27.56;60.54
69393;SHT31;56582;44.624;20.378;2023-06-10T12:35:08;27.70;62.14
69393;SHT31;56582;44.624;20.378;2023-06-10T12:37:35;27.41;60.93
69393;SHT31;56582;44.624;20.378;2023-06-10T12:40:02;27.12;61.19
69393;SHT31;56582;44.624;20.378;2023-06-10T12:42:29;26.97;61.95
69393;SHT31;56582;44.624;20.378;2023-06-10T12:44:56;26.33;63.29
69393;SHT31;56582;44.624;20.378;2023-06-10T12:47:33;26.11;64.78
69393;SHT31;56582;44.624;20.378;2023-06-10T12:50:01;26.52;64.28
69393;SHT31;56582;44.624;20.378;2023-06-10T12:52:30;26.79;61.45
69393;SHT31;56582;44.624;20.378;2023-06-10T12:54:56;27.08;62.16
69393;SHT31;56582;44.624;20.378;2023-06-10T12:57:22;27.25;61.56
69393;SHT31;56582;44.624;20.378;2023-06-10T12:59:48;27.16;62.87
69393;SHT31;56582;44.624;20.378;2023-06-10T13:02:20;27.04;61.60
69393;SHT31;56582;44.624;20.378;2023-06-10T13:04:49;26.69;62.60
69393;SHT31;56582;44.624;20.378;2023-06-10T13:07:15;26.59;63.55
69393;SHT31;56582;44.624;20.378;2023-06-10T13:09:40;26.25;63.68
69393;SHT31;56582;44.624;20.378;2023-06-10T13:12:06;25.95;65.56
69393;SHT31;56582;44.624;20.378;2023-06-10T13:14:33;25.86;67.28
69393;SHT31;56582;44.624;20.378;2023-06-10T13:16:58;25.85;67.55
69393;SHT31;56582;44.624;20.378;2023-06-10T13:19:24;25.85;68.80
69393;SHT31;56582;44.624;20.378;2023-06-10T13:21:49;25.71;68.96
69393;SHT31;56582;44.624;20.378;2023-06-10T13:24:15;25.98;68.09
69393;SHT31;56582;44.624;20.378;2023-06-10T13:26:40;26.01;67.79
69393;SHT31;56582;44.624;20.378;2023-06-10T13:29:06;26.21;64.72
69393;SHT31;56582;44.624;20.378;2023-06-10T13:31:33;26.46;63.90
69393;SHT31;56582;44.624;20.378;2023-06-10T13:33:58;26.50;64.73
69393;SHT31;56582;44.624;20.378;2023-06-10T13:36:24;26.76;63.62
69393;SHT31;56582;44.624;20.378;2023-06-10T13:38:49;26.36;64.45
69393;SHT31;56582;44.624;20.378;2023-06-10T13:41:15;26.28;66.86
69393;SHT31;56582;44.624;20.378;2023-06-10T13:43:41;26.15;68.65
69393;SHT31;56582;44.624;20.378;2023-06-10T13:46:07;26.13;67.72
69393;SHT31;56582;44.624;20.378;2023-06-10T13:48:35;26.06;66.60
69393;SHT31;56582;44.624;20.378;2023-06-10T13:51:01;25.37;66.54
69393;SHT31;56582;44.624;20.378;2023-06-10T13:53:26;25.51;67.29
69393;SHT31;56582;44.624;20.378;2023-06-10T13:55:51;25.85;65.88
69393;SHT31;56582;44.624;20.378;2023-06-10T13:58:17;26.23;67.60
69393;SHT31;56582;44.624;20.378;2023-06-10T14:00:43;26.13;67.97
69393;SHT31;56582;44.624;20.378;2023-06-10T14:03:08;26.16;66.28
69393;SHT31;56582;44.624;20.378;2023-06-10T14:05:34;26.02;64.96
69393;SHT31;56582;44.624;20.378;2023-06-10T14:08:00;25.96;65.91
69393;SHT31;56582;44.624;20.378;2023-06-10T14:10:25;25.86;64.16
69393;SHT31;56582;44.624;20.378;2023-06-10T14:12:50;25.89;65.37
69393;SHT31;56582;44.624;20.378;2023-06-10T14:15:16;25.98;64.49
69393;SHT31;56582;44.624;20.378;2023-06-10T14:17:42;26.01;65.05
69393;SHT31;56582;44.624;20.378;2023-06-10T14:20:08;25.86;65.62
69393;SHT31;56582;44.624;20.378;2023-06-10T14:22:33;26.01;66.46
69393;SHT31;56582;44.624;20.378;2023-06-10T14:24:59;26.29;67.26
69393;SHT31;56582;44.624;20.378;2023-06-10T14:27:24;26.59;66.35
69393;SHT31;56582;44.624;20.378;2023-06-10T14:29:50;26.59;61.59
69393;SHT31;56582;44.624;20.378;2023-06-10T14:32:15;26.39;63.87
69393;SHT31;56582;44.624;20.378;2023-06-10T14:34:41;26.23;62.03
69393;SHT31;56582;44.624;20.378;2023-06-10T14:37:07;26.22;61.09
69393;SHT31;56582;44.624;20.378;2023-06-10T14:39:33;26.26;62.03
69393;SHT31;56582;44.624;20.378;2023-06-10T14:41:58;26.46;61.16
69393;SHT31;56582;44.624;20.378;2023-06-10T14:44:24;26.53;60.14
69393;SHT31;56582;44.624;20.378;2023-06-10T14:46:49;26.32;61.58
69393;SHT31;56582;44.624;20.378;2023-06-10T14:49:15;26.42;62.02
69393;SHT31;56582;44.624;20.378;2023-06-10T14:51:40;26.26;60.37
69393;SHT31;56582;44.624;20.378;2023-06-10T14:54:06;26.52;62.47
69393;SHT31;56582;44.624;20.378;2023-06-10T14:56:31;26.83;61.14
69393;SHT31;56582;44.624;20.378;2023-06-10T14:58:56;26.43;58.18
69393;SHT31;56582;44.624;20.378;2023-06-10T15:01:22;26.42;61.69
69393;SHT31;56582;44.624;20.378;2023-06-10T15:03:48;26.59;60.19
69393;SHT31;56582;44.624;20.378;2023-06-10T15:06:13;26.77;57.66
69393;SHT31;56582;44.624;20.378;2023-06-10T15:08:42;26.70;57.44
69393;SHT31;56582;44.624;20.378;2023-06-10T15:11:07;26.74;58.19
69393;SHT31;56582;44.624;20.378;2023-06-10T15:13:33;26.79;59.28
69393;SHT31;56582;44.624;20.378;2023-06-10T15:15:58;26.79;58.91
69393;SHT31;56582;44.624;20.378;2023-06-10T15:18:23;26.90;59.02
69393;SHT31;56582;44.624;20.378;2023-06-10T15:20:50;26.88;64.62
69393;SHT31;56582;44.624;20.378;2023-06-10T15:23:16;26.84;67.57
69393;SHT31;56582;44.624;20.378;2023-06-10T15:25:42;26.64;69.28
69393;SHT31;56582;44.624;20.378;2023-06-10T15:28:08;26.33;68.29
69393;SHT31;56582;44.624;20.378;2023-06-10T15:30:33;26.19;68.63
69393;SHT31;56582;44.624;20.378;2023-06-10T15:32:59;26.01;68.54
69393;SHT31;56582;44.624;20.378;2023-06-10T15:35:25;25.80;70.36
69393;SHT31;56582;44.624;20.378;2023-06-10T15:37:51;25.31;72.09
69393;SHT31;56582;44.624;20.378;2023-06-10T15:40:17;25.06;72.03
69393;SHT31;56582;44.624;20.378;2023-06-10T15:42:42;24.96;72.16
69393;SHT31;56582;44.624;20.378;2023-06-10T15:45:08;24.88;72.88